Terminal Aerodrome Forecast
Issued by NWS Shreveport, LA

Home | Current Version | Previous Version | Text Only | Print | Product List | Glossary On
Versions: 1 2 3 4 5 6 7 8 9 10 11 12 13
000
FTUS44 KSHV 031149
TAFSHV
TAF
KSHV 031149Z 0312/0412 08012KT 6SM RA OVC008
      TEMPO 0314/0318 2SM +RA BR OVC006
     FM031800 07014KT 5SM RA OVC007
      TEMPO 0318/0322 2SM +RA BR OVC005
     FM040300 06010KT 3SM -RA BR OVC003=

USA.gov is the U.S. government's official web portal to all federal, state and local government web resources and services.